sensor_id;sensor_type;location;lat;lon;timestamp;pressure;altitude;pressure_sealevel;temperature;humidity
39141;BME280;24875;48.436;10.298;2024-03-22T00:01:43;96976.50;;;8.87;100.00
39141;BME280;24875;48.436;10.298;2024-03-22T00:04:09;96981.00;;;8.77;100.00
39141;BME280;24875;48.436;10.298;2024-03-22T00:06:35;96988.41;;;8.64;100.00
39141;BME280;24875;48.436;10.298;2024-03-22T00:09:02;96993.22;;;8.69;100.00
39141;BME280;24875;48.436;10.298;2024-03-22T00:11:27;96985.28;;;8.96;100.00
39141;BME280;24875;48.436;10.298;2024-03-22T00:13:54;96988.38;;;9.08;100.00
39141;BME280;24875;48.436;10.298;2024-03-22T00:16:19;96982.16;;;9.27;100.00
39141;BME280;24875;48.436;10.298;2024-03-22T00:18:47;96972.28;;;9.29;100.00
39141;BME280;24875;48.436;10.298;2024-03-22T00:21:13;96949.97;;;9.33;100.00
39141;BME280;24875;48.436;10.298;2024-03-22T00:23:39;96960.63;;;9.49;100.00
39141;BME280;24875;48.436;10.298;2024-03-22T00:26:05;96952.13;;;9.55;100.00
39141;BME280;24875;48.436;10.298;2024-03-22T00:28:31;96950.31;;;9.55;100.00
39141;BME280;24875;48.436;10.298;2024-03-22T00:30:57;96949.59;;;9.70;100.00
39141;BME280;24875;48.436;10.298;2024-03-22T00:33:23;96949.97;;;9.75;100.00
39141;BME280;24875;48.436;10.298;2024-03-22T00:35:50;96951.84;;;9.83;100.00
39141;BME280;24875;48.436;10.298;2024-03-22T00:38:17;96944.69;;;9.75;100.00
39141;BME280;24875;48.436;10.298;2024-03-22T00:40:42;96934.91;;;9.85;100.00
39141;BME280;24875;48.436;10.298;2024-03-22T00:43:09;96938.81;;;9.81;100.00
39141;BME280;24875;48.436;10.298;2024-03-22T00:45:35;96938.38;;;9.94;100.00
39141;BME280;24875;48.436;10.298;2024-03-22T00:48:01;96929.56;;;10.03;100.00
39141;BME280;24875;48.436;10.298;2024-03-22T00:50:27;96933.06;;;10.03;100.00
39141;BME280;24875;48.436;10.298;2024-03-22T00:52:55;96926.19;;;10.18;100.00
39141;BME280;24875;48.436;10.298;2024-03-22T00:55:21;96930.59;;;10.02;100.00
39141;BME280;24875;48.436;10.298;2024-03-22T00:57:48;96936.47;;;9.96;100.00
39141;BME280;24875;48.436;10.298;2024-03-22T01:00:14;96933.75;;;9.37;100.00
39141;BME280;24875;48.436;10.298;2024-03-22T01:02:41;96933.16;;;9.26;100.00
39141;BME280;24875;48.436;10.298;2024-03-22T01:05:07;96937.50;;;9.35;100.00
39141;BME280;24875;48.436;10.298;2024-03-22T01:07:35;96937.94;;;9.48;100.00
39141;BME280;24875;48.436;10.298;2024-03-22T01:10:02;96934.91;;;9.43;100.00
39141;BME280;24875;48.436;10.298;2024-03-22T01:12:29;96943.06;;;9.14;100.00
39141;BME280;24875;48.436;10.298;2024-03-22T01:14:55;96937.38;;;9.02;100.00
39141;BME280;24875;48.436;10.298;2024-03-22T01:17:21;96942.25;;;8.79;100.00
39141;BME280;24875;48.436;10.298;2024-03-22T01:19:47;96939.09;;;8.93;100.00
39141;BME280;24875;48.436;10.298;2024-03-22T01:22:13;96940.53;;;8.44;100.00
39141;BME280;24875;48.436;10.298;2024-03-22T01:24:39;96938.41;;;8.74;100.00
39141;BME280;24875;48.436;10.298;2024-03-22T01:27:07;96944.28;;;8.85;100.00
39141;BME280;24875;48.436;10.298;2024-03-22T01:29:32;96940.66;;;8.69;100.00
39141;BME280;24875;48.436;10.298;2024-03-22T01:31:59;96935.03;;;8.81;100.00
39141;BME280;24875;48.436;10.298;2024-03-22T01:34:25;96932.81;;;8.86;100.00
39141;BME280;24875;48.436;10.298;2024-03-22T01:36:51;96932.81;;;8.86;100.00
39141;BME280;24875;48.436;10.298;2024-03-22T01:39:18;96931.91;;;8.95;100.00
39141;BME280;24875;48.436;10.298;2024-03-22T01:41:46;96933.31;;;8.72;100.00
39141;BME280;24875;48.436;10.298;2024-03-22T01:44:13;96920.69;;;8.93;100.00
39141;BME280;24875;48.436;10.298;2024-03-22T01:46:40;96916.59;;;8.73;100.00
39141;BME280;24875;48.436;10.298;2024-03-22T01:49:07;96906.66;;;8.67;100.00
39141;BME280;24875;48.436;10.298;2024-03-22T01:51:34;96907.88;;;8.55;100.00
39141;BME280;24875;48.436;10.298;2024-03-22T01:54:01;96903.50;;;8.81;100.00
39141;BME280;24875;48.436;10.298;2024-03-22T01:56:29;96903.06;;;8.68;100.00
39141;BME280;24875;48.436;10.298;2024-03-22T01:58:56;96895.69;;;8.89;100.00
39141;BME280;24875;48.436;10.298;2024-03-22T02:01:24;96890.44;;;8.89;100.00
39141;BME280;24875;48.436;10.298;2024-03-22T02:03:50;96879.88;;;8.81;100.00
39141;BME280;24875;48.436;10.298;2024-03-22T02:06:16;96869.34;;;8.99;100.00
39141;BME280;24875;48.436;10.298;2024-03-22T02:08:42;96867.91;;;9.04;100.00
39141;BME280;24875;48.436;10.298;2024-03-22T02:11:09;96868.44;;;9.08;100.00
39141;BME280;24875;48.436;10.298;2024-03-22T02:13:35;96863.75;;;9.19;100.00
39141;BME280;24875;48.436;10.298;2024-03-22T02:16:02;96865.53;;;9.18;100.00
39141;BME280;24875;48.436;10.298;2024-03-22T02:18:29;96857.41;;;9.29;100.00
39141;BME280;24875;48.436;10.298;2024-03-22T02:20:56;96859.16;;;9.21;100.00
39141;BME280;24875;48.436;10.298;2024-03-22T02:23:30;96849.09;;;9.42;100.00
39141;BME280;24875;48.436;10.298;2024-03-22T02:25:57;96859.03;;;9.05;100.00
39141;BME280;24875;48.436;10.298;2024-03-22T02:28:22;96860.03;;;9.04;100.00
39141;BME280;24875;48.436;10.298;2024-03-22T02:30:49;96858.94;;;9.14;100.00
39141;BME280;24875;48.436;10.298;2024-03-22T02:33:14;96859.91;;;9.13;100.00
39141;BME280;24875;48.436;10.298;2024-03-22T02:35:41;96861.41;;;9.16;100.00
39141;BME280;24875;48.436;10.298;2024-03-22T02:38:07;96857.44;;;9.12;100.00
39141;BME280;24875;48.436;10.298;2024-03-22T02:40:35;96857.75;;;9.09;100.00
39141;BME280;24875;48.436;10.298;2024-03-22T02:43:01;96854.28;;;9.08;100.00
39141;BME280;24875;48.436;10.298;2024-03-22T02:45:27;96846.19;;;9.02;100.00
39141;BME280;24875;48.436;10.298;2024-03-22T02:47:53;96847.78;;;8.95;100.00
39141;BME280;24875;48.436;10.298;2024-03-22T02:50:19;96838.63;;;8.99;100.00
39141;BME280;24875;48.436;10.298;2024-03-22T02:52:46;96844.66;;;8.57;100.00
39141;BME280;24875;48.436;10.298;2024-03-22T02:55:11;96838.25;;;8.94;100.00
39141;BME280;24875;48.436;10.298;2024-03-22T02:57:39;96841.13;;;8.66;100.00
39141;BME280;24875;48.436;10.298;2024-03-22T03:00:06;96832.13;;;8.68;100.00
39141;BME280;24875;48.436;10.298;2024-03-22T03:02:32;96831.66;;;8.73;100.00
39141;BME280;24875;48.436;10.298;2024-03-22T03:04:58;96827.47;;;8.80;100.00
39141;BME280;24875;48.436;10.298;2024-03-22T03:07:25;96819.47;;;8.89;100.00
39141;BME280;24875;48.436;10.298;2024-03-22T03:09:50;96817.75;;;8.80;100.00
39141;BME280;24875;48.436;10.298;2024-03-22T03:12:17;96810.34;;;8.76;100.00
39141;BME280;24875;48.436;10.298;2024-03-22T03:14:45;96807.22;;;8.98;100.00
39141;BME280;24875;48.436;10.298;2024-03-22T03:17:10;96804.72;;;8.71;100.00
39141;BME280;24875;48.436;10.298;2024-03-22T03:19:37;96797.06;;;8.77;100.00
39141;BME280;24875;48.436;10.298;2024-03-22T03:22:03;96806.13;;;8.83;100.00
39141;BME280;24875;48.436;10.298;2024-03-22T03:24:30;96799.31;;;8.90;100.00
39141;BME280;24875;48.436;10.298;2024-03-22T03:26:55;96799.06;;;8.83;100.00
39141;BME280;24875;48.436;10.298;2024-03-22T03:29:22;96801.25;;;8.70;100.00
39141;BME280;24875;48.436;10.298;2024-03-22T03:31:49;96799.84;;;8.76;100.00
39141;BME280;24875;48.436;10.298;2024-03-22T03:34:15;96806.03;;;8.92;100.00
39141;BME280;24875;48.436;10.298;2024-03-22T03:36:41;96805.63;;;8.62;100.00
39141;BME280;24875;48.436;10.298;2024-03-22T03:39:07;96816.13;;;8.45;100.00
39141;BME280;24875;48.436;10.298;2024-03-22T03:41:33;96814.44;;;8.09;100.00
39141;BME280;24875;48.436;10.298;2024-03-22T03:44:00;96809.78;;;7.76;100.00
39141;BME280;24875;48.436;10.298;2024-03-22T03:46:25;96811.81;;;7.82;100.00
39141;BME280;24875;48.436;10.298;2024-03-22T03:48:53;96808.72;;;7.96;100.00
39141;BME280;24875;48.436;10.298;2024-03-22T03:51:19;96812.31;;;7.68;100.00
39141;BME280;24875;48.436;10.298;2024-03-22T03:53:45;96804.50;;;7.59;100.00
39141;BME280;24875;48.436;10.298;2024-03-22T03:56:11;96803.16;;;7.55;100.00
39141;BME280;24875;48.436;10.298;2024-03-22T03:58:37;96799.38;;;7.57;100.00
39141;BME280;24875;48.436;10.298;2024-03-22T04:01:05;96792.44;;;7.92;100.00
39141;BME280;24875;48.436;10.298;2024-03-22T04:03:32;96790.44;;;7.77;100.00
39141;BME280;24875;48.436;10.298;2024-03-22T04:05:59;96780.88;;;8.03;100.00
39141;BME280;24875;48.436;10.298;2024-03-22T04:08:27;96780.50;;;7.98;100.00
39141;BME280;24875;48.436;10.298;2024-03-22T04:10:52;96780.13;;;7.76;100.00
39141;BME280;24875;48.436;10.298;2024-03-22T04:13:21;96783.59;;;7.40;100.00
39141;BME280;24875;48.436;10.298;2024-03-22T04:15:47;96781.81;;;7.67;100.00
39141;BME280;24875;48.436;10.298;2024-03-22T04:18:13;96781.53;;;7.70;100.00
39141;BME280;24875;48.436;10.298;2024-03-22T04:20:39;96781.91;;;7.75;100.00
39141;BME280;24875;48.436;10.298;2024-03-22T04:23:07;96773.09;;;7.93;100.00
39141;BME280;24875;48.436;10.298;2024-03-22T04:25:32;96768.81;;;7.75;100.00
39141;BME280;24875;48.436;10.298;2024-03-22T04:27:59;96763.03;;;7.72;100.00
39141;BME280;24875;48.436;10.298;2024-03-22T04:30:24;96768.50;;;7.78;100.00
39141;BME280;24875;48.436;10.298;2024-03-22T04:32:51;96772.97;;;7.68;100.00
39141;BME280;24875;48.436;10.298;2024-03-22T04:35:16;96775.75;;;7.67;100.00
39141;BME280;24875;48.436;10.298;2024-03-22T04:37:43;96778.59;;;7.73;100.00
39141;BME280;24875;48.436;10.298;2024-03-22T04:40:12;96773.09;;;7.93;100.00
39141;BME280;24875;48.436;10.298;2024-03-22T04:42:38;96775.41;;;7.79;100.00
39141;BME280;24875;48.436;10.298;2024-03-22T04:45:05;96772.16;;;7.85;100.00
39141;BME280;24875;48.436;10.298;2024-03-22T04:47:31;96766.94;;;7.85;100.00
39141;BME280;24875;48.436;10.298;2024-03-22T04:49:57;96764.91;;;7.79;100.00
39141;BME280;24875;48.436;10.298;2024-03-22T04:52:23;96769.47;;;7.77;100.00
39141;BME280;24875;48.436;10.298;2024-03-22T04:54:49;96772.63;;;7.81;100.00
39141;BME280;24875;48.436;10.298;2024-03-22T04:57:16;96773.63;;;7.97;100.00
39141;BME280;24875;48.436;10.298;2024-03-22T04:59:43;96777.09;;;7.71;100.00
39141;BME280;24875;48.436;10.298;2024-03-22T05:02:08;96775.59;;;7.68;100.00
39141;BME280;24875;48.436;10.298;2024-03-22T05:04:35;96788.63;;;7.60;100.00
39141;BME280;24875;48.436;10.298;2024-03-22T05:07:00;96784.19;;;7.61;100.00
39141;BME280;24875;48.436;10.298;2024-03-22T05:09:27;96782.59;;;7.50;100.00
39141;BME280;24875;48.436;10.298;2024-03-22T05:11:52;96787.41;;;7.55;100.00
39141;BME280;24875;48.436;10.298;2024-03-22T05:14:21;96794.50;;;7.72;100.00
39141;BME280;24875;48.436;10.298;2024-03-22T05:16:46;96794.56;;;7.26;100.00
39141;BME280;24875;48.436;10.298;2024-03-22T05:19:13;96795.50;;;7.34;100.00
39141;BME280;24875;48.436;10.298;2024-03-22T05:21:38;96795.25;;;7.28;100.00
39141;BME280;24875;48.436;10.298;2024-03-22T05:24:05;96794.50;;;7.45;100.00
39141;BME280;24875;48.436;10.298;2024-03-22T05:26:31;96789.16;;;7.27;100.00
39141;BME280;24875;48.436;10.298;2024-03-22T05:29:01;96789.66;;;7.40;100.00
39141;BME280;24875;48.436;10.298;2024-03-22T05:31:29;96790.38;;;7.69;100.00
39141;BME280;24875;48.436;10.298;2024-03-22T05:33:55;96778.22;;;7.41;100.00
39141;BME280;24875;48.436;10.298;2024-03-22T05:36:21;96779.78;;;7.61;100.00
39141;BME280;24875;48.436;10.298;2024-03-22T05:38:47;96770.34;;;7.68;100.00
39141;BME280;24875;48.436;10.298;2024-03-22T05:41:13;96781.03;;;7.57;100.00
39141;BME280;24875;48.436;10.298;2024-03-22T05:43:39;96778.66;;;7.64;100.00
39141;BME280;24875;48.436;10.298;2024-03-22T05:46:05;96778.22;;;7.68;100.00
39141;BME280;24875;48.436;10.298;2024-03-22T05:48:33;96777.16;;;8.05;100.00
39141;BME280;24875;48.436;10.298;2024-03-22T05:50:58;96782.78;;;7.93;100.00
39141;BME280;24875;48.436;10.298;2024-03-22T05:53:25;96771.41;;;8.02;100.00
39141;BME280;24875;48.436;10.298;2024-03-22T05:55:50;96769.44;;;8.04;100.00
39141;BME280;24875;48.436;10.298;2024-03-22T05:58:17;96763.75;;;8.08;100.00
39141;BME280;24875;48.436;10.298;2024-03-22T06:00:43;96765.53;;;8.08;100.00
39141;BME280;24875;48.436;10.298;2024-03-22T06:03:09;96764.16;;;8.31;100.00
39141;BME280;24875;48.436;10.298;2024-03-22T06:05:36;96767.66;;;8.56;100.00
39141;BME280;24875;48.436;10.298;2024-03-22T06:08:04;96767.16;;;8.53;100.00
39141;BME280;24875;48.436;10.298;2024-03-22T06:10:30;96761.34;;;8.67;100.00
39141;BME280;24875;48.436;10.298;2024-03-22T06:12:56;96761.63;;;8.81;100.00
39141;BME280;24875;48.436;10.298;2024-03-22T06:15:22;96753.38;;;8.76;100.00
39141;BME280;24875;48.436;10.298;2024-03-22T06:17:48;96756.56;;;8.88;100.00
39141;BME280;24875;48.436;10.298;2024-03-22T06:20:15;96757.53;;;9.12;100.00
39141;BME280;24875;48.436;10.298;2024-03-22T06:22:43;96753.72;;;9.32;100.00
39141;BME280;24875;48.436;10.298;2024-03-22T06:25:09;96752.03;;;9.23;100.00
39141;BME280;24875;48.436;10.298;2024-03-22T06:27:35;96751.31;;;9.13;100.00
39141;BME280;24875;48.436;10.298;2024-03-22T06:30:01;96754.50;;;8.99;100.00
39141;BME280;24875;48.436;10.298;2024-03-22T06:32:28;96744.41;;;9.12;100.00
39141;BME280;24875;48.436;10.298;2024-03-22T06:34:54;96748.00;;;9.11;100.00
39141;BME280;24875;48.436;10.298;2024-03-22T06:37:20;96746.69;;;9.15;100.00
39141;BME280;24875;48.436;10.298;2024-03-22T06:39:47;96739.16;;;9.53;100.00
39141;BME280;24875;48.436;10.298;2024-03-22T06:42:14;96737.25;;;9.30;100.00
39141;BME280;24875;48.436;10.298;2024-03-22T06:44:39;96740.31;;;8.92;100.00
39141;BME280;24875;48.436;10.298;2024-03-22T06:47:06;96736.41;;;9.55;100.00
39141;BME280;24875;48.436;10.298;2024-03-22T06:49:31;96742.06;;;9.75;100.00
39141;BME280;24875;48.436;10.298;2024-03-22T06:51:58;96735.28;;;9.73;100.00
39141;BME280;24875;48.436;10.298;2024-03-22T06:54:25;96736.50;;;9.86;100.00
39141;BME280;24875;48.436;10.298;2024-03-22T06:56:53;96738.41;;;9.68;100.00
39141;BME280;24875;48.436;10.298;2024-03-22T06:59:18;96734.56;;;9.47;100.00
39141;BME280;24875;48.436;10.298;2024-03-22T07:01:45;96733.66;;;9.80;100.00
39141;BME280;24875;48.436;10.298;2024-03-22T07:04:11;96730.22;;;9.87;100.00
39141;BME280;24875;48.436;10.298;2024-03-22T07:06:37;96719.16;;;10.25;100.00
39141;BME280;24875;48.436;10.298;2024-03-22T07:09:03;96720.00;;;10.33;100.00
39141;BME280;24875;48.436;10.298;2024-03-22T07:11:29;96721.97;;;10.63;100.00
39141;BME280;24875;48.436;10.298;2024-03-22T07:13:56;96714.56;;;10.67;100.00
39141;BME280;24875;48.436;10.298;2024-03-22T07:16:23;96724.91;;;10.44;100.00
39141;BME280;24875;48.436;10.298;2024-03-22T07:18:48;96726.06;;;10.66;100.00
39141;BME280;24875;48.436;10.298;2024-03-22T07:21:15;96715.88;;;10.47;100.00
39141;BME280;24875;48.436;10.298;2024-03-22T07:23:41;96711.06;;;10.82;100.00
39141;BME280;24875;48.436;10.298;2024-03-22T07:26:08;96711.56;;;10.78;100.00
39141;BME280;24875;48.436;10.298;2024-03-22T07:28:34;96715.16;;;10.93;100.00
39141;BME280;24875;48.436;10.298;2024-03-22T07:31:02;96718.13;;;10.97;100.00
39141;BME280;24875;48.436;10.298;2024-03-22T07:33:27;96713.19;;;11.02;100.00
39141;BME280;24875;48.436;10.298;2024-03-22T07:35:54;96713.78;;;11.20;100.00
39141;BME280;24875;48.436;10.298;2024-03-22T07:38:20;96703.97;;;11.45;100.00
39141;BME280;24875;48.436;10.298;2024-03-22T07:40:46;96714.19;;;11.48;100.00
39141;BME280;24875;48.436;10.298;2024-03-22T07:43:12;96707.25;;;11.47;100.00
39141;BME280;24875;48.436;10.298;2024-03-22T07:45:41;96694.97;;;12.00;100.00
39141;BME280;24875;48.436;10.298;2024-03-22T07:48:08;96693.69;;;11.96;100.00
39141;BME280;24875;48.436;10.298;2024-03-22T07:50:35;96693.50;;;11.97;100.00
39141;BME280;24875;48.436;10.298;2024-03-22T07:53:01;96696.72;;;12.37;100.00
39141;BME280;24875;48.436;10.298;2024-03-22T07:55:27;96699.66;;;12.42;100.00
39141;BME280;24875;48.436;10.298;2024-03-22T07:57:53;96700.97;;;12.61;100.00
39141;BME280;24875;48.436;10.298;2024-03-22T08:00:19;96698.13;;;12.84;100.00
39141;BME280;24875;48.436;10.298;2024-03-22T08:02:45;96697.16;;;12.63;100.00
39141;BME280;24875;48.436;10.298;2024-03-22T08:05:13;96689.44;;;12.76;100.00
39141;BME280;24875;48.436;10.298;2024-03-22T08:07:38;96684.84;;;12.70;100.00
39141;BME280;24875;48.436;10.298;2024-03-22T08:10:06;96674.78;;;12.88;100.00
39141;BME280;24875;48.436;10.298;2024-03-22T08:12:31;96674.91;;;13.09;100.00
39141;BME280;24875;48.436;10.298;2024-03-22T08:14:58;96668.88;;;13.15;100.00
39141;BME280;24875;48.436;10.298;2024-03-22T08:17:23;96672.56;;;13.14;100.00
39141;BME280;24875;48.436;10.298;2024-03-22T08:19:50;96664.25;;;13.02;100.00
39141;BME280;24875;48.436;10.298;2024-03-22T08:22:17;96664.59;;;13.28;100.00
39141;BME280;24875;48.436;10.298;2024-03-22T08:24:43;96669.09;;;13.28;100.00
39141;BME280;24875;48.436;10.298;2024-03-22T08:27:09;96665.59;;;13.27;100.00
39141;BME280;24875;48.436;10.298;2024-03-22T08:29:35;96665.59;;;13.41;100.00
39141;BME280;24875;48.436;10.298;2024-03-22T08:32:01;96663.31;;;13.38;100.00
39141;BME280;24875;48.436;10.298;2024-03-22T08:34:29;96658.91;;;13.60;100.00
39141;BME280;24875;48.436;10.298;2024-03-22T08:36:55;96657.59;;;13.70;100.00
39141;BME280;24875;48.436;10.298;2024-03-22T08:39:23;96657.63;;;13.91;100.00
39141;BME280;24875;48.436;10.298;2024-03-22T08:41:49;96650.72;;;13.90;100.00
39141;BME280;24875;48.436;10.298;2024-03-22T08:44:16;96644.91;;;14.01;100.00
39141;BME280;24875;48.436;10.298;2024-03-22T08:46:42;96647.81;;;14.06;100.00
39141;BME280;24875;48.436;10.298;2024-03-22T08:49:08;96659.81;;;14.02;100.00
39141;BME280;24875;48.436;10.298;2024-03-22T08:51:34;96652.88;;;14.01;100.00
39141;BME280;24875;48.436;10.298;2024-03-22T08:54:01;96650.34;;;14.28;100.00
39141;BME280;24875;48.436;10.298;2024-03-22T08:56:28;96651.00;;;14.58;100.00
39141;BME280;24875;48.436;10.298;2024-03-22T08:58:54;96647.72;;;14.56;100.00
39141;BME280;24875;48.436;10.298;2024-03-22T09:01:20;96645.91;;;14.83;100.00
39141;BME280;24875;48.436;10.298;2024-03-22T09:03:47;96646.38;;;14.66;100.00
39141;BME280;24875;48.436;10.298;2024-03-22T09:06:16;96641.75;;;14.26;100.00
39141;BME280;24875;48.436;10.298;2024-03-22T09:08:42;96640.97;;;14.53;100.00
39141;BME280;24875;48.436;10.298;2024-03-22T09:11:08;96647.47;;;14.51;100.00
39141;BME280;24875;48.436;10.298;2024-03-22T09:13:36;96647.25;;;15.00;100.00
39141;BME280;24875;48.436;10.298;2024-03-22T09:16:01;96637.94;;;14.83;100.00
39141;BME280;24875;48.436;10.298;2024-03-22T09:18:28;96638.84;;;14.42;100.00
39141;BME280;24875;48.436;10.298;2024-03-22T09:20:54;96638.50;;;14.79;100.00
39141;BME280;24875;48.436;10.298;2024-03-22T09:23:21;96636.38;;;14.95;100.00
39141;BME280;24875;48.436;10.298;2024-03-22T09:25:47;96639.38;;;15.13;100.00
39141;BME280;24875;48.436;10.298;2024-03-22T09:28:13;96623.88;;;14.83;100.00
39141;BME280;24875;48.436;10.298;2024-03-22T09:30:41;96628.47;;;15.29;100.00
39141;BME280;24875;48.436;10.298;2024-03-22T09:33:08;96619.91;;;15.33;100.00
39141;BME280;24875;48.436;10.298;2024-03-22T09:35:34;96630.13;;;15.30;100.00
39141;BME280;24875;48.436;10.298;2024-03-22T09:38:01;96628.31;;;15.37;100.00
39141;BME280;24875;48.436;10.298;2024-03-22T09:40:27;96618.06;;;15.27;100.00
39141;BME280;24875;48.436;10.298;2024-03-22T09:42:59;96608.06;;;15.83;100.00
39141;BME280;24875;48.436;10.298;2024-03-22T09:45:28;96611.25;;;15.59;100.00
39141;BME280;24875;48.436;10.298;2024-03-22T09:47:56;96598.53;;;15.48;100.00
39141;BME280;24875;48.436;10.298;2024-03-22T09:50:23;96597.50;;;15.49;98.94
39141;BME280;24875;48.436;10.298;2024-03-22T09:52:51;96595.22;;;15.92;98.07
39141;BME280;24875;48.436;10.298;2024-03-22T09:55:18;96586.63;;;16.10;96.30
39141;BME280;24875;48.436;10.298;2024-03-22T09:57:49;96591.34;;;15.95;93.04
39141;BME280;24875;48.436;10.298;2024-03-22T10:00:17;96579.88;;;16.01;95.28
39141;BME280;24875;48.436;10.298;2024-03-22T10:02:46;96579.50;;;16.23;92.99
39141;BME280;24875;48.436;10.298;2024-03-22T10:05:13;96574.84;;;16.38;93.54
39141;BME280;24875;48.436;10.298;2024-03-22T10:07:40;96572.59;;;16.48;91.59
39141;BME280;24875;48.436;10.298;2024-03-22T10:10:06;96572.19;;;16.51;90.79
39141;BME280;24875;48.436;10.298;2024-03-22T10:12:33;96567.66;;;16.58;88.62
39141;BME280;24875;48.436;10.298;2024-03-22T10:14:59;96566.38;;;16.93;86.31
39141;BME280;24875;48.436;10.298;2024-03-22T10:17:26;96567.78;;;17.14;85.15
39141;BME280;24875;48.436;10.298;2024-03-22T10:19:52;96565.53;;;17.11;83.71
39141;BME280;24875;48.436;10.298;2024-03-22T10:22:20;96562.22;;;17.22;84.33
39141;BME280;24875;48.436;10.298;2024-03-22T10:24:46;96568.47;;;16.84;85.60
39141;BME280;24875;48.436;10.298;2024-03-22T10:27:13;96562.47;;;17.02;84.21
39141;BME280;24875;48.436;10.298;2024-03-22T10:29:39;96552.03;;;17.07;82.87
39141;BME280;24875;48.436;10.298;2024-03-22T10:32:06;96551.09;;;17.45;82.32
39141;BME280;24875;48.436;10.298;2024-03-22T10:34:34;96548.47;;;17.38;81.68
39141;BME280;24875;48.436;10.298;2024-03-22T10:37:01;96544.53;;;17.47;80.54
39141;BME280;24875;48.436;10.298;2024-03-22T10:39:28;96531.28;;;17.71;78.97
39141;BME280;24875;48.436;10.298;2024-03-22T10:41:55;96538.91;;;17.68;76.65
39141;BME280;24875;48.436;10.298;2024-03-22T10:44:20;96534.00;;;17.65;77.35
39141;BME280;24875;48.436;10.298;2024-03-22T10:46:48;96533.50;;;18.12;76.67
39141;BME280;24875;48.436;10.298;2024-03-22T10:49:16;96527.03;;;18.74;74.24
39141;BME280;24875;48.436;10.298;2024-03-22T10:51:46;96520.00;;;18.07;73.77
39141;BME280;24875;48.436;10.298;2024-03-22T10:54:17;96515.56;;;18.25;73.14
39141;BME280;24875;48.436;10.298;2024-03-22T10:56:47;96512.38;;;18.83;73.99
39141;BME280;24875;48.436;10.298;2024-03-22T10:59:14;96506.81;;;18.85;72.17
39141;BME280;24875;48.436;10.298;2024-03-22T11:01:45;96502.81;;;18.51;72.57
39141;BME280;24875;48.436;10.298;2024-03-22T11:04:10;96500.81;;;18.23;72.12
39141;BME280;24875;48.436;10.298;2024-03-22T11:06:37;96498.69;;;18.55;69.45
39141;BME280;24875;48.436;10.298;2024-03-22T11:09:03;96489.06;;;18.90;69.48
39141;BME280;24875;48.436;10.298;2024-03-22T11:11:30;96489.16;;;19.37;69.08
39141;BME280;24875;48.436;10.298;2024-03-22T11:13:59;96476.72;;;19.13;67.60
39141;BME280;24875;48.436;10.298;2024-03-22T11:16:26;96475.00;;;19.01;68.17
39141;BME280;24875;48.436;10.298;2024-03-22T11:18:52;96470.25;;;19.03;68.12
39141;BME280;24875;48.436;10.298;2024-03-22T11:21:18;96465.25;;;19.42;66.86
39141;BME280;24875;48.436;10.298;2024-03-22T11:23:45;96454.47;;;19.49;65.69
39141;BME280;24875;48.436;10.298;2024-03-22T11:26:12;96451.47;;;19.86;64.96
39141;BME280;24875;48.436;10.298;2024-03-22T11:28:37;96450.59;;;20.03;63.33
39141;BME280;24875;48.436;10.298;2024-03-22T11:31:05;96450.97;;;19.77;64.26
39141;BME280;24875;48.436;10.298;2024-03-22T11:33:31;96450.56;;;19.92;64.79
39141;BME280;24875;48.436;10.298;2024-03-22T11:35:58;96437.47;;;20.36;63.46
39141;BME280;24875;48.436;10.298;2024-03-22T11:38:25;96439.31;;;20.01;64.45
39141;BME280;24875;48.436;10.298;2024-03-22T11:40:54;96423.00;;;19.91;63.13
39141;BME280;24875;48.436;10.298;2024-03-22T11:43:21;96427.81;;;19.71;63.04
39141;BME280;24875;48.436;10.298;2024-03-22T11:45:48;96425.06;;;19.89;63.59
39141;BME280;24875;48.436;10.298;2024-03-22T11:48:15;96417.47;;;19.75;61.88
39141;BME280;24875;48.436;10.298;2024-03-22T11:50:42;96420.25;;;20.09;62.43
39141;BME280;24875;48.436;10.298;2024-03-22T11:53:08;96413.03;;;20.32;61.28
39141;BME280;24875;48.436;10.298;2024-03-22T11:55:35;96418.72;;;19.32;62.16
39141;BME280;24875;48.436;10.298;2024-03-22T11:58:01;96414.03;;;19.86;62.66
39141;BME280;24875;48.436;10.298;2024-03-22T12:00:28;96409.47;;;19.86;62.18
39141;BME280;24875;48.436;10.298;2024-03-22T12:02:54;96396.63;;;19.95;60.53
39141;BME280;24875;48.436;10.298;2024-03-22T12:05:22;96395.81;;;20.40;59.75
39141;BME280;24875;48.436;10.298;2024-03-22T12:07:47;96392.09;;;20.41;58.20
39141;BME280;24875;48.436;10.298;2024-03-22T12:10:14;96383.56;;;20.67;58.67
39141;BME280;24875;48.436;10.298;2024-03-22T12:12:39;96378.56;;;20.70;58.36
39141;BME280;24875;48.436;10.298;2024-03-22T12:15:07;96378.78;;;20.91;56.92
39141;BME280;24875;48.436;10.298;2024-03-22T12:17:32;96376.09;;;21.19;57.41
39141;BME280;24875;48.436;10.298;2024-03-22T12:20:01;96371.50;;;21.03;55.65
39141;BME280;24875;48.436;10.298;2024-03-22T12:22:30;96364.06;;;21.05;56.29
39141;BME280;24875;48.436;10.298;2024-03-22T12:24:57;96358.16;;;20.92;54.54
39141;BME280;24875;48.436;10.298;2024-03-22T12:27:22;96360.19;;;20.62;55.35
39141;BME280;24875;48.436;10.298;2024-03-22T12:29:49;96352.97;;;20.40;55.95
39141;BME280;24875;48.436;10.298;2024-03-22T12:32:14;96352.13;;;20.85;55.44
39141;BME280;24875;48.436;10.298;2024-03-22T12:34:41;96350.25;;;20.85;55.15
39141;BME280;24875;48.436;10.298;2024-03-22T12:37:07;96347.63;;;21.30;55.17
39141;BME280;24875;48.436;10.298;2024-03-22T12:39:35;96343.72;;;21.37;54.41
39141;BME280;24875;48.436;10.298;2024-03-22T12:42:00;96329.66;;;20.75;54.08
39141;BME280;24875;48.436;10.298;2024-03-22T12:44:27;96338.22;;;20.26;53.86